createdAt,value
2022-07-26T00:02:18.501Z,10.53
2022-07-26T00:04:46.922Z,11.10
2022-07-26T00:07:14.898Z,8.97
2022-07-26T00:09:48.050Z,7.90
2022-07-26T00:12:17.871Z,10.40
2022-07-26T00:14:45.826Z,8.50
2022-07-26T00:17:13.793Z,10.40
2022-07-26T00:19:41.487Z,13.40
2022-07-26T00:22:27.127Z,10.40
2022-07-26T00:24:55.088Z,9.57
2022-07-26T00:27:29.499Z,7.67
2022-07-26T00:29:57.411Z,9.50
2022-07-26T00:32:25.580Z,13.53
2022-07-26T00:34:53.833Z,8.47
2022-07-26T00:37:21.656Z,8.70
2022-07-26T00:39:49.789Z,11.10
2022-07-26T00:42:17.614Z,12.87
2022-07-26T00:44:49.652Z,10.77
2022-07-26T00:47:18.771Z,11.13
2022-07-26T00:49:46.855Z,8.77
2022-07-26T00:52:15.215Z,7.73
2022-07-26T00:54:45.931Z,9.97
2022-07-26T00:57:14.995Z,10.70
2022-07-26T00:59:43.736Z,8.30
2022-07-26T01:02:13.057Z,6.40
2022-07-26T01:04:44.440Z,9.47
2022-07-26T01:07:20.538Z,10.33
2022-07-26T01:09:55.898Z,7.73
2022-07-26T01:12:26.632Z,10.13
2022-07-26T01:15:04.712Z,9.17
2022-07-26T01:17:38.681Z,8.23
2022-07-26T01:20:17.593Z,9.13
2022-07-26T01:23:28.093Z,9.80
2022-07-26T01:26:07.162Z,10.80
2022-07-26T01:28:38.728Z,10.30
2022-07-26T01:31:07.202Z,10.90
2022-07-26T01:33:46.721Z,10.17
2022-07-26T01:39:10.295Z,8.87
2022-07-26T01:44:44.689Z,8.80
2022-07-26T01:47:32.158Z,8.93
2022-07-26T01:50:10.111Z,10.53
2022-07-26T01:52:45.206Z,10.13
2022-07-26T01:55:15.830Z,7.63
2022-07-26T01:57:54.968Z,10.57
2022-07-26T02:00:38.526Z,13.07
2022-07-26T02:03:09.267Z,14.70
2022-07-26T02:05:42.369Z,14.53
2022-07-26T02:08:40.305Z,13.40
2022-07-26T02:11:19.471Z,16.37
2022-07-26T02:13:57.869Z,12.47
2022-07-26T02:16:44.527Z,14.53
2022-07-26T02:19:13.086Z,11.83
2022-07-26T02:21:46.851Z,10.60
2022-07-26T02:24:17.233Z,12.93
2022-07-26T02:26:48.467Z,12.80
2022-07-26T02:29:16.307Z,11.63
2022-07-26T02:31:48.490Z,10.70
2022-07-26T02:34:19.227Z,8.90
2022-07-26T02:36:50.921Z,10.33
2022-07-26T02:39:30.512Z,13.50
2022-07-26T02:42:09.479Z,8.43
2022-07-26T02:44:43.339Z,11.20
2022-07-26T02:47:15.265Z,8.70
2022-07-26T02:49:45.922Z,9.40
2022-07-26T02:52:25.068Z,8.23
2022-07-26T02:57:48.395Z,10.03
2022-07-26T03:00:32.442Z,9.30
2022-07-26T03:03:07.660Z,8.80
2022-07-26T03:05:51.438Z,9.07
2022-07-26T03:08:19.178Z,10.20
2022-07-26T03:11:00.032Z,10.53
2022-07-26T03:13:30.934Z,10.13
2022-07-26T03:16:00.729Z,9.57
2022-07-26T03:18:41.228Z,8.50
2022-07-26T03:21:15.527Z,10.93
2022-07-26T03:23:46.094Z,7.90
2022-07-26T03:26:18.399Z,12.70
2022-07-26T03:28:50.750Z,12.97
2022-07-26T03:31:18.762Z,10.53
2022-07-26T03:33:47.987Z,10.27
2022-07-26T03:36:16.365Z,10.17
2022-07-26T03:38:44.308Z,7.90
2022-07-26T03:41:13.681Z,9.83
2022-07-26T03:43:41.728Z,8.63
2022-07-26T03:46:10.278Z,7.17
2022-07-26T03:48:38.524Z,9.90
2022-07-26T03:51:08.013Z,11.00
2022-07-26T03:53:35.816Z,9.67
2022-07-26T03:56:21.312Z,6.87
2022-07-26T03:58:49.197Z,9.27
2022-07-26T04:01:17.041Z,6.27
2022-07-26T04:03:47.685Z,10.60
2022-07-26T04:06:17.387Z,6.83
2022-07-26T04:08:45.599Z,6.57
2022-07-26T04:11:13.550Z,7.83
2022-07-26T04:13:41.647Z,7.83
2022-07-26T04:16:10.147Z,6.97
2022-07-26T04:18:39.044Z,8.93
2022-07-26T04:21:07.144Z,7.03
2022-07-26T04:23:36.414Z,8.10
2022-07-26T04:26:04.374Z,7.00
2022-07-26T04:28:32.792Z,7.23
2022-07-26T04:31:01.964Z,10.63
2022-07-26T04:33:29.820Z,10.17
2022-07-26T04:35:57.783Z,10.17
2022-07-26T04:38:25.647Z,6.17
2022-07-26T04:40:56.101Z,5.93
2022-07-26T04:43:23.937Z,4.30
2022-07-26T04:45:52.501Z,8.07
2022-07-26T04:48:20.331Z,10.17
2022-07-26T04:50:48.271Z,7.53
2022-07-26T04:53:16.373Z,6.30
2022-07-26T04:55:44.822Z,6.77
2022-07-26T04:58:14.070Z,7.70
2022-07-26T05:01:08.382Z,10.33
2022-07-26T05:03:30.429Z,6.50
2022-07-26T05:05:59.345Z,7.60
2022-07-26T05:08:27.160Z,7.70
2022-07-26T05:10:59.449Z,13.77
2022-07-26T05:13:30.531Z,7.07
2022-07-26T05:15:59.423Z,8.27
2022-07-26T05:18:31.629Z,9.10
2022-07-26T05:21:01.897Z,7.67
2022-07-26T05:23:29.658Z,12.43
2022-07-26T05:25:57.453Z,7.93
2022-07-26T05:28:25.124Z,7.53
2022-07-26T05:30:54.388Z,8.83
2022-07-26T05:33:22.578Z,9.73
2022-07-26T05:35:50.389Z,7.17
2022-07-26T05:38:18.318Z,10.90
2022-07-26T05:40:50.442Z,7.97
2022-07-26T05:43:19.379Z,11.17
2022-07-26T05:45:47.438Z,7.73
2022-07-26T05:48:16.785Z,8.30
2022-07-26T05:50:45.551Z,6.43
2022-07-26T05:53:13.255Z,9.73
2022-07-26T05:55:41.220Z,9.67
2022-07-26T05:58:09.108Z,7.57
2022-07-26T06:00:36.892Z,6.23
2022-07-26T06:03:22.025Z,10.97
2022-07-26T06:05:56.745Z,6.47
2022-07-26T06:08:26.076Z,5.97
2022-07-26T06:10:54.452Z,10.60
2022-07-26T06:13:22.326Z,5.47
2022-07-26T06:15:53.348Z,10.13
2022-07-26T06:18:21.511Z,4.67
2022-07-26T06:20:50.872Z,9.37
2022-07-26T06:23:30.986Z,5.83
2022-07-26T06:26:02.315Z,8.33
2022-07-26T06:28:30.121Z,6.33
2022-07-26T06:30:57.987Z,9.23
2022-07-26T06:33:25.739Z,7.77
2022-07-26T06:35:53.465Z,6.93
2022-07-26T06:38:23.227Z,6.67
2022-07-26T06:40:51.165Z,6.20
2022-07-26T06:43:19.031Z,8.40
2022-07-26T06:46:01.989Z,10.43
2022-07-26T06:48:29.993Z,7.80
2022-07-26T06:50:57.824Z,4.53
2022-07-26T06:53:27.646Z,6.13
2022-07-26T06:55:55.506Z,7.03
2022-07-26T06:58:23.562Z,7.03
2022-07-26T07:00:51.573Z,6.20
2022-07-26T07:03:19.589Z,9.63
2022-07-26T07:05:50.068Z,5.83
2022-07-26T07:08:23.380Z,7.60
2022-07-26T07:10:53.457Z,4.80
2022-07-26T07:13:22.116Z,3.33
2022-07-26T07:15:56.335Z,5.03
2022-07-26T07:18:24.308Z,5.13
2022-07-26T07:20:52.357Z,7.10
2022-07-26T07:23:22.294Z,6.90
2022-07-26T07:25:52.171Z,4.47
2022-07-26T07:28:27.448Z,9.47
2022-07-26T07:30:55.450Z,7.03
2022-07-26T07:33:23.459Z,9.07
2022-07-26T07:35:53.859Z,7.17
2022-07-26T07:38:22.434Z,3.47
2022-07-26T07:40:52.170Z,4.40
2022-07-26T07:43:20.182Z,7.47
2022-07-26T07:45:48.769Z,2.43
2022-07-26T07:48:19.913Z,3.87
2022-07-26T07:50:48.096Z,6.07
2022-07-26T07:53:16.210Z,4.87
2022-07-26T07:55:46.770Z,4.77
2022-07-26T07:58:17.572Z,7.03
2022-07-26T08:00:48.137Z,5.47
2022-07-26T08:03:17.828Z,4.53
2022-07-26T08:05:49.557Z,3.97
2022-07-26T08:08:18.263Z,7.07
2022-07-26T08:10:51.921Z,6.00
2022-07-26T08:13:25.361Z,5.93
2022-07-26T08:15:56.358Z,6.40
2022-07-26T08:18:25.114Z,8.63
2022-07-26T08:20:54.420Z,5.90
2022-07-26T08:23:25.752Z,6.10
2022-07-26T08:25:59.617Z,12.00
2022-07-26T08:28:46.826Z,6.10
2022-07-26T08:31:17.974Z,5.83
2022-07-26T08:33:46.858Z,6.37
2022-07-26T08:36:15.829Z,4.67
2022-07-26T08:38:44.029Z,3.97
2022-07-26T08:41:13.312Z,4.17
2022-07-26T08:43:51.557Z,7.07
2022-07-26T08:46:27.539Z,7.53
2022-07-26T08:48:57.170Z,3.63
2022-07-26T08:51:26.724Z,4.07
2022-07-26T08:54:04.414Z,5.53
2022-07-26T08:56:33.835Z,5.73
2022-07-26T08:59:19.585Z,6.40
2022-07-26T09:01:57.171Z,5.33
2022-07-26T09:04:32.297Z,6.33
2022-07-26T09:07:06.455Z,2.97
2022-07-26T09:09:37.580Z,3.00
2022-07-26T09:12:17.109Z,3.77
2022-07-26T09:14:47.799Z,5.40
2022-07-26T09:17:17.380Z,4.93
2022-07-26T09:19:45.703Z,3.73
2022-07-26T09:22:17.248Z,2.47
2022-07-26T09:24:47.140Z,4.83
2022-07-26T09:27:41.352Z,4.03
2022-07-26T09:30:12.903Z,2.17
2022-07-26T09:32:41.359Z,2.97
2022-07-26T09:35:44.625Z,3.57
2022-07-26T09:38:14.891Z,3.47
2022-07-26T09:40:44.841Z,2.53
2022-07-26T09:43:24.051Z,4.17
2022-07-26T09:46:07.123Z,3.23
2022-07-26T09:49:07.138Z,4.50
2022-07-26T09:51:40.652Z,3.73
2022-07-26T09:54:10.177Z,3.43
2022-07-26T09:56:49.812Z,11.07
2022-07-26T09:59:19.986Z,3.60
2022-07-26T10:01:50.391Z,5.33
2022-07-26T10:04:18.878Z,3.87
2022-07-26T10:06:47.537Z,3.50
2022-07-26T10:09:16.676Z,1.83
2022-07-26T10:11:50.929Z,3.63
2022-07-26T10:14:42.828Z,5.03
2022-07-26T10:17:47.219Z,3.80
2022-07-26T10:20:44.457Z,1.97
2022-07-26T10:23:51.817Z,2.83
2022-07-26T10:26:45.666Z,3.60
2022-07-26T10:29:28.100Z,4.50
2022-07-26T10:32:16.377Z,5.60
2022-07-26T10:34:45.003Z,5.63
2022-07-26T10:37:30.809Z,7.10
2022-07-26T10:40:21.069Z,4.50
2022-07-26T10:42:56.314Z,6.73
2022-07-26T10:45:24.737Z,8.40
2022-07-26T10:48:14.124Z,3.43
2022-07-26T10:50:43.636Z,3.77
2022-07-26T10:53:20.099Z,5.07
2022-07-26T10:55:50.303Z,4.43
2022-07-26T10:58:18.842Z,9.03
2022-07-26T11:01:00.138Z,3.97
2022-07-26T11:03:38.858Z,5.73
2022-07-26T11:06:14.827Z,5.17
2022-07-26T11:08:48.291Z,4.23
2022-07-26T11:11:31.558Z,5.53
2022-07-26T11:14:08.199Z,3.30
2022-07-26T11:16:40.977Z,5.33
2022-07-26T11:19:19.806Z,3.33
2022-07-26T11:21:54.176Z,5.83
2022-07-26T11:24:23.484Z,4.13
2022-07-26T11:26:51.248Z,3.70
2022-07-26T11:29:37.945Z,4.70
2022-07-26T11:32:14.806Z,2.93
2022-07-26T11:34:46.143Z,4.37
2022-07-26T11:37:14.719Z,2.90
2022-07-26T11:39:43.965Z,12.10
2022-07-26T11:42:16.254Z,2.97
2022-07-26T11:44:45.552Z,4.30
2022-07-26T11:47:15.049Z,4.97
2022-07-26T11:50:00.263Z,6.47
2022-07-26T11:52:31.255Z,10.37
2022-07-26T11:55:01.392Z,3.47
2022-07-26T11:57:31.197Z,5.53
2022-07-26T12:00:01.057Z,7.30
2022-07-26T12:02:31.270Z,6.50
2022-07-26T12:05:15.719Z,9.37
2022-07-26T12:07:58.097Z,6.83
2022-07-26T12:10:27.687Z,5.70
2022-07-26T12:13:12.402Z,10.00
2022-07-26T12:15:48.404Z,5.83
2022-07-26T12:18:26.838Z,5.60
2022-07-26T12:21:04.947Z,8.80
2022-07-26T12:23:45.805Z,7.37
2022-07-26T12:26:26.314Z,5.00
2022-07-26T12:28:57.943Z,3.63
2022-07-26T12:31:30.597Z,5.40
2022-07-26T12:33:59.058Z,8.37
2022-07-26T12:36:29.466Z,8.50
2022-07-26T12:38:59.021Z,5.97
2022-07-26T12:41:36.304Z,5.37
2022-07-26T12:44:06.400Z,10.87
2022-07-26T12:46:35.149Z,6.37
2022-07-26T12:49:06.250Z,6.10
2022-07-26T12:51:34.919Z,3.57
2022-07-26T12:54:03.606Z,3.93
2022-07-26T12:56:36.079Z,6.57
2022-07-26T12:59:04.172Z,3.17
2022-07-26T13:01:33.083Z,3.50
2022-07-26T13:04:01.653Z,3.60
2022-07-26T13:06:29.659Z,7.10
2022-07-26T13:08:57.992Z,5.93
2022-07-26T13:11:26.513Z,3.10
2022-07-26T13:14:28.467Z,2.83
2022-07-26T13:16:56.686Z,4.80
2022-07-26T13:19:24.517Z,3.43
2022-07-26T13:21:53.226Z,4.10
2022-07-26T13:24:21.515Z,4.37
2022-07-26T13:26:52.979Z,2.50
2022-07-26T13:29:23.836Z,3.40
2022-07-26T13:31:54.234Z,7.10
2022-07-26T13:34:23.078Z,5.50
2022-07-26T13:36:51.314Z,7.67
2022-07-26T13:39:19.679Z,5.23
2022-07-26T13:41:47.953Z,3.47
2022-07-26T13:44:15.958Z,5.93
2022-07-26T13:46:45.588Z,3.27
2022-07-26T13:49:13.615Z,2.90
2022-07-26T13:51:59.986Z,3.90
2022-07-26T13:54:30.403Z,3.57
2022-07-26T13:56:59.589Z,2.23
2022-07-26T13:59:29.449Z,3.83
2022-07-26T14:01:59.329Z,4.73
2022-07-26T14:04:30.009Z,3.83
2022-07-26T14:06:58.056Z,5.03
2022-07-26T14:09:30.943Z,2.57
2022-07-26T14:11:58.895Z,3.77
2022-07-26T14:14:27.011Z,2.30
2022-07-26T14:16:55.207Z,3.90
2022-07-26T14:19:27.870Z,2.80
2022-07-26T14:21:59.981Z,4.17
2022-07-26T14:24:28.787Z,5.17
2022-07-26T14:26:59.549Z,4.97
2022-07-26T14:29:33.992Z,4.13
2022-07-26T14:32:07.339Z,2.53
2022-07-26T14:34:39.057Z,4.40
2022-07-26T14:37:15.244Z,3.43
2022-07-26T14:39:55.403Z,2.30
2022-07-26T14:42:23.576Z,3.40
2022-07-26T14:44:51.648Z,5.53
2022-07-26T14:47:19.490Z,4.50
2022-07-26T14:50:15.740Z,3.93
2022-07-26T14:56:16.888Z,3.13
2022-07-26T14:58:44.961Z,2.30
2022-07-26T15:01:15.688Z,3.10
2022-07-26T15:03:43.662Z,3.77
2022-07-26T15:06:15.730Z,4.20
2022-07-26T15:08:43.801Z,3.10
2022-07-26T15:11:28.420Z,2.30
2022-07-26T15:20:47.926Z,2.97
2022-07-26T15:23:17.435Z,2.37
2022-07-26T15:25:48.665Z,1.73
2022-07-26T15:28:17.132Z,2.27
2022-07-26T15:30:45.689Z,2.73
2022-07-26T15:33:14.491Z,4.87
2022-07-26T15:35:42.610Z,4.97
2022-07-26T15:38:10.758Z,7.23
2022-07-26T15:40:40.907Z,4.07
2022-07-26T15:43:08.613Z,3.33
2022-07-26T15:45:37.431Z,1.60
2022-07-26T15:48:15.846Z,1.40
2022-07-26T15:50:46.592Z,2.67
2022-07-26T15:53:16.888Z,3.13
2022-07-26T15:55:46.117Z,5.13
2022-07-26T15:58:14.303Z,1.80
2022-07-26T16:00:43.315Z,2.10
2022-07-26T16:03:20.190Z,2.20
2022-07-26T16:05:48.774Z,3.43
2022-07-26T16:08:17.011Z,3.77
2022-07-26T16:10:46.221Z,2.03
2022-07-26T16:13:14.166Z,1.87
2022-07-26T16:15:42.042Z,3.03
2022-07-26T16:18:09.925Z,4.33
2022-07-26T16:20:37.769Z,3.60
2022-07-26T16:23:05.545Z,2.17
2022-07-26T16:25:33.325Z,3.43
2022-07-26T16:28:02.586Z,3.50
2022-07-26T16:30:30.476Z,3.53
2022-07-26T16:32:58.448Z,2.10
2022-07-26T16:35:26.365Z,1.90
2022-07-26T16:37:54.346Z,2.00
2022-07-26T16:40:22.494Z,2.70
2022-07-26T16:42:50.450Z,2.37
2022-07-26T16:45:20.123Z,1.83
2022-07-26T16:47:48.074Z,2.80
2022-07-26T16:50:27.685Z,2.77
2022-07-26T16:52:56.055Z,2.77
2022-07-26T16:55:23.784Z,1.70
2022-07-26T16:57:51.617Z,2.47
2022-07-26T17:00:22.285Z,2.90
2022-07-26T17:02:50.178Z,5.07
2022-07-26T17:05:18.018Z,1.63
2022-07-26T17:07:45.831Z,2.97
2022-07-26T17:10:13.854Z,1.90
2022-07-26T17:12:41.939Z,1.30
2022-07-26T17:15:19.324Z,1.87
2022-07-26T17:17:49.083Z,1.30
2022-07-26T17:20:17.359Z,1.33
2022-07-26T17:22:45.523Z,2.03
2022-07-26T17:25:13.706Z,1.23
2022-07-26T17:27:41.615Z,3.13
2022-07-26T17:30:11.019Z,2.93
2022-07-26T17:32:39.305Z,2.97
2022-07-26T17:35:09.784Z,4.13
2022-07-26T17:37:37.743Z,3.13
2022-07-26T17:40:08.143Z,2.10
2022-07-26T17:42:36.236Z,2.30
2022-07-26T17:45:04.358Z,1.97
2022-07-26T17:47:32.183Z,4.80
2022-07-26T17:52:51.110Z,2.33
2022-07-26T17:55:19.937Z,1.33
2022-07-26T17:57:48.395Z,1.93
2022-07-26T18:00:18.583Z,2.83
2022-07-26T18:02:46.584Z,4.10
2022-07-26T18:05:15.175Z,2.53
2022-07-26T18:07:43.197Z,2.93
2022-07-26T18:10:14.290Z,2.17
2022-07-26T18:12:42.166Z,1.90
2022-07-26T18:15:10.973Z,2.43
2022-07-26T18:17:39.320Z,2.77
2022-07-26T18:20:08.176Z,1.73
2022-07-26T18:22:35.997Z,2.30
2022-07-26T18:25:04.681Z,2.53
2022-07-26T18:27:34.340Z,2.37
2022-07-26T18:30:02.121Z,4.53
2022-07-26T18:32:29.846Z,4.67
2022-07-26T18:34:57.581Z,3.87
2022-07-26T18:37:25.361Z,4.60
2022-07-26T18:39:57.614Z,6.20
2022-07-26T18:42:27.611Z,2.63
2022-07-26T18:44:56.772Z,1.97
2022-07-26T18:47:24.632Z,4.20
2022-07-26T18:49:52.572Z,5.07
2022-07-26T18:52:28.726Z,4.23
2022-07-26T18:55:02.632Z,3.57
2022-07-26T18:57:30.654Z,2.03
2022-07-26T18:59:59.912Z,4.63
2022-07-26T19:02:28.078Z,2.50
2022-07-26T19:04:55.996Z,1.53
2022-07-26T19:07:24.055Z,6.07
2022-07-26T19:09:57.892Z,5.17
2022-07-26T19:12:26.458Z,4.23
2022-07-26T19:14:54.398Z,3.57
2022-07-26T19:17:23.925Z,3.80
2022-07-26T19:19:51.783Z,6.63
2022-07-26T19:22:20.038Z,4.53
2022-07-26T19:24:48.782Z,6.00
2022-07-26T19:27:16.913Z,3.17
2022-07-26T19:29:45.191Z,3.07
2022-07-26T19:32:12.978Z,2.50
2022-07-26T19:34:42.135Z,3.67
2022-07-26T19:37:09.879Z,3.20
2022-07-26T19:39:37.630Z,5.37
2022-07-26T19:42:05.644Z,7.63
2022-07-26T19:44:33.781Z,3.07
2022-07-26T19:47:01.474Z,6.20
2022-07-26T19:49:29.815Z,3.93
2022-07-26T19:51:59.777Z,2.10
2022-07-26T19:54:28.318Z,3.37
2022-07-26T19:56:56.098Z,3.90
2022-07-26T19:59:24.722Z,2.43
2022-07-26T20:01:56.596Z,2.73
2022-07-26T20:04:26.430Z,6.43
2022-07-26T20:06:55.148Z,2.50
2022-07-26T20:09:24.407Z,4.00
2022-07-26T20:11:52.418Z,3.13
2022-07-26T20:14:21.418Z,5.90
2022-07-26T20:16:52.911Z,4.33
2022-07-26T20:19:24.304Z,2.90
2022-07-26T20:21:52.212Z,4.10
2022-07-26T20:24:20.235Z,2.97
2022-07-26T20:26:50.038Z,1.97
2022-07-26T20:29:17.928Z,4.83
2022-07-26T20:31:46.089Z,7.63
2022-07-26T20:34:14.019Z,2.20
2022-07-26T20:36:41.847Z,3.70
2022-07-26T20:39:10.141Z,6.23
2022-07-26T20:41:38.129Z,1.97
2022-07-26T20:44:08.256Z,2.70
2022-07-26T20:46:40.111Z,6.10
2022-07-26T20:49:09.760Z,3.40
2022-07-26T20:51:38.629Z,3.27
2022-07-26T20:54:06.690Z,7.37
2022-07-26T20:56:34.561Z,3.73
2022-07-26T20:59:03.066Z,6.27
2022-07-26T21:01:33.203Z,5.00
2022-07-26T21:04:01.097Z,6.17
2022-07-26T21:06:29.548Z,5.77
2022-07-26T21:08:57.829Z,5.23
2022-07-26T21:11:25.668Z,9.57
2022-07-26T21:13:53.425Z,8.83
2022-07-26T21:16:21.258Z,2.97
2022-07-26T21:18:52.542Z,8.97
2022-07-26T21:21:21.242Z,4.00
2022-07-26T21:23:49.268Z,6.10
2022-07-26T21:26:17.151Z,5.13
2022-07-26T21:28:45.022Z,3.13
2022-07-26T21:31:12.920Z,3.30
2022-07-26T21:33:40.650Z,7.47
2022-07-26T21:36:09.768Z,8.13
2022-07-26T21:38:37.525Z,3.97
2022-07-26T21:41:05.393Z,6.67
2022-07-26T21:43:33.853Z,4.70
2022-07-26T21:46:01.938Z,4.63
2022-07-26T21:48:30.764Z,4.27
2022-07-26T21:50:58.607Z,6.87
2022-07-26T21:53:27.717Z,4.77
2022-07-26T21:55:55.772Z,3.03
2022-07-26T21:58:27.514Z,3.60
2022-07-26T22:01:03.412Z,5.10
2022-07-26T22:03:36.594Z,2.43
2022-07-26T22:06:05.666Z,3.00
2022-07-26T22:08:35.081Z,5.27
2022-07-26T22:11:03.617Z,5.20
2022-07-26T22:13:31.502Z,9.47
2022-07-26T22:15:59.202Z,3.77
2022-07-26T22:18:27.307Z,6.33
2022-07-26T22:20:55.659Z,5.83
2022-07-26T22:23:29.901Z,3.23
2022-07-26T22:26:01.701Z,5.63
2022-07-26T22:28:30.081Z,5.97
2022-07-26T22:30:58.177Z,3.03
2022-07-26T22:33:26.057Z,3.60
2022-07-26T22:35:54.244Z,1.97
2022-07-26T22:38:22.164Z,5.90
2022-07-26T22:40:50.390Z,4.47
2022-07-26T22:43:19.534Z,4.00
2022-07-26T22:45:47.441Z,7.43
2022-07-26T22:48:15.171Z,5.77
2022-07-26T22:50:43.083Z,4.27
2022-07-26T22:53:10.884Z,3.77
2022-07-26T22:55:38.775Z,6.23
2022-07-26T22:58:06.528Z,3.97
2022-07-26T23:00:35.718Z,6.37
2022-07-26T23:03:03.770Z,3.40
2022-07-26T23:05:45.944Z,4.30
2022-07-26T23:08:46.433Z,4.90
2022-07-26T23:11:03.049Z,6.07
2022-07-26T23:13:30.935Z,9.03
2022-07-26T23:16:01.456Z,4.77
2022-07-26T23:18:30.498Z,5.90
2022-07-26T23:20:58.435Z,4.20
2022-07-26T23:23:29.780Z,7.03
2022-07-26T23:25:58.910Z,3.27
2022-07-26T23:28:37.250Z,3.60
2022-07-26T23:31:08.978Z,3.50
2022-07-26T23:33:50.552Z,6.47
2022-07-26T23:36:22.719Z,4.17
2022-07-26T23:38:50.443Z,5.33
2022-07-26T23:41:18.897Z,7.63
2022-07-26T23:43:46.707Z,5.10
2022-07-26T23:46:16.142Z,7.60
2022-07-26T23:48:43.957Z,5.03
2022-07-26T23:51:12.018Z,6.80
2022-07-26T23:53:39.810Z,8.67
2022-07-26T23:56:07.579Z,6.00
2022-07-26T23:58:35.290Z,6.70
